createdAt,value
2023-03-31T00:01:34.633Z,98999.92
2023-03-31T00:04:04.718Z,99001.39
2023-03-31T00:06:41.885Z,98999.73
2023-03-31T00:09:13.194Z,99002.34
2023-03-31T00:11:41.489Z,98998.98
2023-03-31T00:14:09.860Z,99003.23
2023-03-31T00:16:39.329Z,98998.18
2023-03-31T00:19:10.103Z,98997.80
2023-03-31T00:21:38.148Z,98991.79
2023-03-31T00:24:07.075Z,98996.27
2023-03-31T00:26:39.964Z,98994.63
2023-03-31T00:29:09.171Z,98997.43
2023-03-31T00:31:39.185Z,98991.40
2023-03-31T00:34:08.073Z,98990.73
2023-03-31T00:36:37.113Z,98982.61
2023-03-31T00:39:10.363Z,98980.60
2023-03-31T00:41:39.422Z,98975.55
2023-03-31T00:44:09.084Z,98968.95
2023-03-31T00:46:53.335Z,98964.19
2023-03-31T00:49:42.491Z,98959.11
2023-03-31T00:52:13.730Z,98962.83
2023-03-31T00:54:43.143Z,98959.42
2023-03-31T00:57:11.472Z,98957.31
2023-03-31T00:59:42.663Z,98954.52
2023-03-31T01:02:10.754Z,98952.79
2023-03-31T01:04:44.873Z,98949.67
2023-03-31T01:07:41.452Z,98951.19
2023-03-31T01:10:10.321Z,98948.50
2023-03-31T01:12:40.733Z,98944.85
2023-03-31T01:15:10.053Z,98941.73
2023-03-31T01:17:40.810Z,98932.63
2023-03-31T01:20:33.200Z,98935.58
2023-03-31T01:23:32.353Z,98937.30
2023-03-31T01:26:23.299Z,98931.88
2023-03-31T01:29:16.797Z,98923.54
2023-03-31T01:32:19.431Z,98924.60
2023-03-31T01:35:22.173Z,98920.15
2023-03-31T01:38:09.070Z,98920.34
2023-03-31T01:40:50.763Z,98908.91
2023-03-31T01:43:19.042Z,98906.98
2023-03-31T01:45:58.852Z,98904.73
2023-03-31T01:48:39.335Z,98898.72
2023-03-31T01:51:16.211Z,98896.19
2023-03-31T01:53:53.310Z,98900.34
2023-03-31T01:56:27.312Z,98896.36
2023-03-31T01:59:00.840Z,98891.85
2023-03-31T02:01:56.558Z,98894.61
2023-03-31T02:04:27.528Z,98887.84
2023-03-31T02:06:58.344Z,98885.38
2023-03-31T02:09:29.762Z,98883.10
2023-03-31T02:11:58.062Z,98873.89
2023-03-31T02:14:29.096Z,98860.38
2023-03-31T02:16:58.644Z,98860.54
2023-03-31T02:19:30.456Z,98855.27
2023-03-31T02:21:59.663Z,98849.38
2023-03-31T02:24:28.358Z,98847.30
2023-03-31T02:27:36.032Z,98844.55
2023-03-31T02:30:04.867Z,98849.98
2023-03-31T02:32:44.583Z,98849.97
2023-03-31T02:35:17.984Z,98844.40
2023-03-31T02:37:46.596Z,98833.39
2023-03-31T02:40:22.636Z,98834.02
2023-03-31T02:42:51.303Z,98829.80
2023-03-31T02:45:41.266Z,98826.77
2023-03-31T02:48:17.648Z,98825.73
2023-03-31T02:51:14.674Z,98823.14
2023-03-31T02:54:08.653Z,98827.85
2023-03-31T02:56:53.089Z,98824.59
2023-03-31T02:59:27.929Z,98826.02
2023-03-31T03:02:18.188Z,98830.24
2023-03-31T03:05:05.364Z,98827.85
2023-03-31T03:07:42.152Z,98827.70
2023-03-31T03:10:38.760Z,98824.44
2023-03-31T03:13:18.268Z,98823.46
2023-03-31T03:15:48.707Z,98825.11
2023-03-31T03:18:16.892Z,98823.96
2023-03-31T03:20:49.422Z,98823.11
2023-03-31T03:23:18.288Z,98822.23
2023-03-31T03:25:47.101Z,98824.84
2023-03-31T03:28:17.638Z,98824.98
2023-03-31T03:30:46.151Z,98821.36
2023-03-31T03:33:17.469Z,98816.34
2023-03-31T03:35:46.210Z,98820.27
2023-03-31T03:38:14.628Z,98812.95
2023-03-31T03:40:42.723Z,98808.55
2023-03-31T03:43:10.951Z,98810.56
2023-03-31T03:45:39.125Z,98811.27
2023-03-31T03:48:07.348Z,98805.03
2023-03-31T03:50:37.193Z,98806.23
2023-03-31T03:53:05.331Z,98806.20
2023-03-31T03:55:36.139Z,98805.02
2023-03-31T03:58:05.030Z,98798.81
2023-03-31T04:00:33.516Z,98798.27
2023-03-31T04:03:02.474Z,98798.21
2023-03-31T04:05:31.248Z,98790.66
2023-03-31T04:07:59.481Z,98789.05
2023-03-31T04:10:28.888Z,98790.32
2023-03-31T04:12:57.657Z,98794.25
2023-03-31T04:15:26.048Z,98797.27
2023-03-31T04:17:55.016Z,98797.81
2023-03-31T04:20:28.159Z,98795.48
2023-03-31T04:22:56.337Z,98794.20
2023-03-31T04:25:24.818Z,98790.48
2023-03-31T04:27:56.012Z,98785.39
2023-03-31T04:30:31.118Z,98779.05
2023-03-31T04:33:02.902Z,98779.15
2023-03-31T04:35:50.461Z,98775.06
2023-03-31T04:38:23.228Z,98772.70
2023-03-31T04:40:51.965Z,98767.80
2023-03-31T04:43:22.284Z,98762.86
2023-03-31T04:45:50.858Z,98757.93
2023-03-31T04:48:19.447Z,98759.72
2023-03-31T04:50:48.912Z,98759.77
2023-03-31T04:53:17.202Z,98756.34
2023-03-31T04:55:46.390Z,98752.23
2023-03-31T04:58:14.546Z,98750.58
2023-03-31T05:00:44.157Z,98748.42
2023-03-31T05:03:12.909Z,98740.38
2023-03-31T05:05:41.619Z,98739.04
2023-03-31T05:08:09.705Z,98733.86
2023-03-31T05:10:38.615Z,98731.29
2023-03-31T05:13:06.789Z,98733.86
2023-03-31T05:15:38.156Z,98733.84
2023-03-31T05:18:07.066Z,98735.33
2023-03-31T05:20:35.736Z,98735.63
2023-03-31T05:23:03.917Z,98731.07
2023-03-31T05:25:33.659Z,98726.34
2023-03-31T05:28:02.043Z,98721.99
2023-03-31T05:30:30.288Z,98717.48
2023-03-31T05:32:58.507Z,98716.27
2023-03-31T05:35:26.650Z,98718.77
2023-03-31T05:37:55.689Z,98715.58
2023-03-31T05:40:25.793Z,98711.00
2023-03-31T05:42:54.146Z,98702.67
2023-03-31T05:45:22.942Z,98694.85
2023-03-31T05:47:51.699Z,98688.75
2023-03-31T05:50:19.935Z,98679.02
2023-03-31T05:52:48.162Z,98674.30
2023-03-31T05:55:16.592Z,98670.64
2023-03-31T05:57:45.170Z,98666.34
2023-03-31T06:00:14.290Z,98664.50
2023-03-31T06:02:43.856Z,98662.25
2023-03-31T06:05:12.676Z,98668.80
2023-03-31T06:07:41.289Z,98668.71
2023-03-31T06:10:11.016Z,98664.35
2023-03-31T06:12:39.492Z,98664.46
2023-03-31T06:15:08.377Z,98659.58
2023-03-31T06:17:38.657Z,98651.95
2023-03-31T06:20:24.055Z,98648.81
2023-03-31T06:22:59.502Z,98653.02
2023-03-31T06:25:30.685Z,98655.42
2023-03-31T06:28:03.025Z,98663.49
2023-03-31T06:30:31.613Z,98676.90
2023-03-31T06:33:00.335Z,98674.45
2023-03-31T06:35:28.486Z,98667.90
2023-03-31T06:37:57.801Z,98660.34
2023-03-31T06:40:26.065Z,98655.61
2023-03-31T06:42:54.658Z,98654.15
2023-03-31T06:45:23.349Z,98648.86
2023-03-31T06:47:52.166Z,98646.46
2023-03-31T06:50:20.423Z,98644.67
2023-03-31T06:52:53.125Z,98643.56
2023-03-31T06:55:21.505Z,98639.34
2023-03-31T06:57:49.772Z,98634.55
2023-03-31T07:00:20.710Z,98630.75
2023-03-31T07:02:52.589Z,98626.48
2023-03-31T07:05:27.000Z,98622.80
2023-03-31T07:07:55.914Z,98622.11
2023-03-31T07:10:25.410Z,98621.82
2023-03-31T07:12:54.193Z,98622.92
2023-03-31T07:15:22.471Z,98622.21
2023-03-31T07:17:54.215Z,98622.34
2023-03-31T07:20:24.149Z,98620.33
2023-03-31T07:22:52.635Z,98618.54
2023-03-31T07:25:20.920Z,98616.05
2023-03-31T07:27:48.954Z,98615.84
2023-03-31T07:30:19.015Z,98615.88
2023-03-31T07:32:51.043Z,98615.39
2023-03-31T07:35:19.582Z,98616.94
2023-03-31T07:37:48.405Z,98616.29
2023-03-31T07:40:22.170Z,98615.80
2023-03-31T07:42:52.335Z,98610.69
2023-03-31T07:45:22.459Z,98605.42
2023-03-31T07:47:51.061Z,98604.11
2023-03-31T07:50:20.931Z,98603.89
2023-03-31T07:52:51.666Z,98600.08
2023-03-31T07:55:20.249Z,98590.55
2023-03-31T07:57:48.431Z,98585.14
2023-03-31T08:00:17.465Z,98585.24
2023-03-31T08:02:47.434Z,98583.95
2023-03-31T08:05:17.365Z,98582.73
2023-03-31T08:07:46.720Z,98580.32
2023-03-31T08:10:21.405Z,98575.85
2023-03-31T08:12:49.560Z,98574.41
2023-03-31T08:15:18.099Z,98574.08
2023-03-31T08:17:49.234Z,98571.27
2023-03-31T08:20:17.620Z,98567.77
2023-03-31T08:22:45.892Z,98561.70
2023-03-31T08:25:14.135Z,98562.91
2023-03-31T08:27:42.749Z,98564.78
2023-03-31T08:30:11.650Z,98562.03
2023-03-31T08:32:43.873Z,98561.12
2023-03-31T08:35:12.502Z,98559.52
2023-03-31T08:37:41.294Z,98559.39
2023-03-31T08:40:23.948Z,98551.56
2023-03-31T08:42:54.231Z,98549.30
2023-03-31T08:45:36.325Z,98547.90
2023-03-31T08:48:16.029Z,98545.48
2023-03-31T08:50:51.012Z,98540.48
2023-03-31T08:53:29.869Z,98537.38
2023-03-31T08:55:58.718Z,98534.54
2023-03-31T08:59:02.323Z,98523.93
2023-03-31T09:01:56.195Z,98519.60
2023-03-31T09:04:51.829Z,98521.29
2023-03-31T09:07:48.742Z,98520.34
2023-03-31T09:10:33.269Z,98517.45
2023-03-31T09:13:17.539Z,98515.98
2023-03-31T09:16:09.819Z,98515.95
2023-03-31T09:18:46.764Z,98511.95
2023-03-31T09:21:44.576Z,98511.14
2023-03-31T09:24:17.401Z,98506.60
2023-03-31T09:26:55.063Z,98507.34
2023-03-31T09:29:42.373Z,98500.66
2023-03-31T09:32:19.528Z,98494.07
2023-03-31T09:34:50.936Z,98486.36
2023-03-31T09:37:19.412Z,98485.58
2023-03-31T09:39:47.785Z,98488.41
2023-03-31T09:42:16.484Z,98484.71
2023-03-31T09:44:46.692Z,98490.34
2023-03-31T09:47:21.107Z,98490.13
2023-03-31T09:49:54.107Z,98485.03
2023-03-31T09:52:31.835Z,98485.00
2023-03-31T09:55:02.775Z,98478.48
2023-03-31T09:57:36.720Z,98476.80
2023-03-31T10:00:19.229Z,98476.45
2023-03-31T10:02:51.914Z,98476.20
2023-03-31T10:05:31.785Z,98475.77
2023-03-31T10:08:20.524Z,98475.20
2023-03-31T10:10:53.275Z,98471.33
2023-03-31T10:13:29.583Z,98468.41
2023-03-31T10:16:03.332Z,98465.17
2023-03-31T10:18:39.847Z,98458.84
2023-03-31T10:21:27.532Z,98452.98
2023-03-31T10:23:56.421Z,98451.55
2023-03-31T10:26:27.031Z,98445.63
2023-03-31T10:28:56.015Z,98441.73
2023-03-31T10:31:27.954Z,98438.35
2023-03-31T10:33:56.360Z,98435.20
2023-03-31T10:36:28.528Z,98433.52
2023-03-31T10:38:56.931Z,98432.11
2023-03-31T10:41:29.873Z,98427.01
2023-03-31T10:43:59.410Z,98423.52
2023-03-31T10:46:42.903Z,98421.95
2023-03-31T10:49:29.647Z,98418.55
2023-03-31T10:51:59.453Z,98420.97
2023-03-31T10:54:27.557Z,98420.34
2023-03-31T10:56:57.973Z,98422.66
2023-03-31T10:59:47.027Z,98419.86
2023-03-31T11:02:23.542Z,98415.40
2023-03-31T11:05:01.425Z,98412.58
2023-03-31T11:08:00.710Z,98410.58
2023-03-31T11:10:35.239Z,98408.80
2023-03-31T11:13:13.373Z,98404.77
2023-03-31T11:15:54.878Z,98404.38
2023-03-31T11:18:40.060Z,98396.92
2023-03-31T11:21:39.561Z,98390.55
2023-03-31T11:24:52.784Z,98385.73
2023-03-31T11:27:39.774Z,98375.20
2023-03-31T11:30:36.198Z,98376.47
2023-03-31T11:33:37.795Z,98368.43
2023-03-31T11:36:26.328Z,98364.66
2023-03-31T11:38:54.429Z,98361.67
2023-03-31T11:41:43.011Z,98363.77
2023-03-31T11:44:12.724Z,98364.80
2023-03-31T11:46:43.369Z,98360.63
2023-03-31T11:49:24.992Z,98359.27
2023-03-31T11:52:17.972Z,98355.89
2023-03-31T11:54:56.426Z,98358.67
2023-03-31T11:57:29.951Z,98352.91
2023-03-31T12:00:25.287Z,98346.52
2023-03-31T12:02:55.274Z,98341.20
2023-03-31T12:05:24.999Z,98334.17
2023-03-31T12:07:56.293Z,98331.58
2023-03-31T12:10:34.850Z,98330.08
2023-03-31T12:13:33.365Z,98325.36
2023-03-31T12:16:13.275Z,98319.69
2023-03-31T12:19:05.033Z,98309.33
2023-03-31T12:21:33.220Z,98304.14
2023-03-31T12:24:02.621Z,98308.67
2023-03-31T12:26:36.431Z,98309.14
2023-03-31T12:29:42.158Z,98308.69
2023-03-31T12:32:12.509Z,98309.73
2023-03-31T12:34:46.136Z,98310.00
2023-03-31T12:37:29.516Z,98309.61
2023-03-31T12:40:19.607Z,98308.75
2023-03-31T12:42:54.380Z,98304.74
2023-03-31T12:45:36.227Z,98300.40
2023-03-31T12:48:10.449Z,98294.48
2023-03-31T12:51:11.582Z,98298.19
2023-03-31T12:53:48.373Z,98293.13
2023-03-31T12:56:16.862Z,98292.12
2023-03-31T12:58:46.236Z,98290.77
2023-03-31T13:01:23.215Z,98284.07
2023-03-31T13:04:21.217Z,98282.92
2023-03-31T13:06:54.737Z,98276.96
2023-03-31T13:09:33.897Z,98275.33
2023-03-31T13:12:09.839Z,98270.75
2023-03-31T13:14:40.665Z,98262.36
2023-03-31T13:17:30.071Z,98261.64
2023-03-31T13:20:24.373Z,98260.08
2023-03-31T13:23:06.102Z,98257.17
2023-03-31T13:25:48.395Z,98256.76
2023-03-31T13:28:22.622Z,98258.45
2023-03-31T13:30:53.928Z,98257.33
2023-03-31T13:33:47.182Z,98257.39
2023-03-31T13:36:30.678Z,98254.58
2023-03-31T13:39:15.542Z,98250.75
2023-03-31T13:41:49.789Z,98247.58
2023-03-31T13:44:39.630Z,98248.34
2023-03-31T13:47:36.045Z,98247.58
2023-03-31T13:50:23.369Z,98241.52
2023-03-31T13:53:13.349Z,98237.81
2023-03-31T13:56:09.969Z,98237.98
2023-03-31T13:58:50.531Z,98237.97
2023-03-31T14:01:30.906Z,98236.30
2023-03-31T14:04:35.742Z,98236.16
2023-03-31T14:07:11.380Z,98236.48
2023-03-31T14:09:52.637Z,98237.46
2023-03-31T14:12:35.648Z,98236.10
2023-03-31T14:15:07.527Z,98238.08
2023-03-31T14:17:40.518Z,98234.80
2023-03-31T14:20:20.854Z,98233.23
2023-03-31T14:23:17.433Z,98236.27
2023-03-31T14:26:00.722Z,98235.39
2023-03-31T14:29:01.358Z,98236.64
2023-03-31T14:31:35.644Z,98229.86
2023-03-31T14:34:08.657Z,98232.29
2023-03-31T14:36:52.897Z,98229.68
2023-03-31T14:39:22.474Z,98227.36
2023-03-31T14:41:53.460Z,98229.70
2023-03-31T14:44:22.342Z,98225.73
2023-03-31T14:46:51.178Z,98223.30
2023-03-31T14:49:21.052Z,98226.70
2023-03-31T14:51:49.796Z,98224.45
2023-03-31T14:54:19.344Z,98224.09
2023-03-31T14:56:50.131Z,98223.86
2023-03-31T14:59:25.466Z,98223.22
2023-03-31T15:01:57.789Z,98228.05
2023-03-31T15:04:39.559Z,98224.35
2023-03-31T15:07:11.921Z,98229.05
2023-03-31T15:09:39.995Z,98236.05
2023-03-31T15:12:12.673Z,98235.55
2023-03-31T15:14:51.473Z,98240.94
2023-03-31T15:17:24.827Z,98242.02
2023-03-31T15:19:57.925Z,98242.24
2023-03-31T15:22:28.485Z,98242.87
2023-03-31T15:24:57.983Z,98243.59
2023-03-31T15:27:38.086Z,98245.20
2023-03-31T15:30:08.148Z,98246.37
2023-03-31T15:32:38.231Z,98243.16
2023-03-31T15:35:21.130Z,98243.20
2023-03-31T15:37:52.972Z,98236.41
2023-03-31T15:40:27.271Z,98242.78
2023-03-31T15:43:26.200Z,98245.98
2023-03-31T15:45:55.791Z,98244.33
2023-03-31T15:48:28.494Z,98243.98
2023-03-31T15:51:21.182Z,98246.52
2023-03-31T15:53:52.550Z,98247.84
2023-03-31T15:56:42.513Z,98244.25
2023-03-31T15:59:22.506Z,98244.70
2023-03-31T16:01:52.245Z,98241.63
2023-03-31T16:04:20.737Z,98238.92
2023-03-31T16:07:01.284Z,98238.09
2023-03-31T16:09:59.880Z,98234.91
2023-03-31T16:12:36.281Z,98233.87
2023-03-31T16:15:04.705Z,98231.26
2023-03-31T16:17:37.146Z,98230.38
2023-03-31T16:20:17.409Z,98231.63
2023-03-31T16:22:47.170Z,98229.05
2023-03-31T16:25:17.435Z,98233.36
2023-03-31T16:27:52.940Z,98233.48
2023-03-31T16:30:22.797Z,98238.16
2023-03-31T16:33:02.778Z,98233.80
2023-03-31T16:35:37.070Z,98234.06
2023-03-31T16:38:06.211Z,98237.23
2023-03-31T16:40:41.638Z,98232.50
2023-03-31T16:43:17.081Z,98233.75
2023-03-31T16:45:49.665Z,98238.79
2023-03-31T16:48:20.243Z,98239.27
2023-03-31T16:50:51.782Z,98236.84
2023-03-31T16:53:23.182Z,98235.72
2023-03-31T16:55:51.974Z,98233.40
2023-03-31T16:58:21.311Z,98235.00
2023-03-31T17:00:49.616Z,98233.77
2023-03-31T17:03:20.626Z,98236.51
2023-03-31T17:05:53.017Z,98237.30
2023-03-31T17:08:22.188Z,98236.20
2023-03-31T17:11:02.589Z,98235.02
2023-03-31T17:13:32.704Z,98238.77
2023-03-31T17:16:16.399Z,98237.64
2023-03-31T17:18:50.069Z,98237.06
2023-03-31T17:21:22.206Z,98238.91
2023-03-31T17:23:55.057Z,98237.16
2023-03-31T17:26:23.747Z,98235.78
2023-03-31T17:28:52.091Z,98230.54
2023-03-31T17:31:21.255Z,98236.65
2023-03-31T17:33:49.497Z,98236.03
2023-03-31T17:36:22.449Z,98234.80
2023-03-31T17:38:51.188Z,98235.94
2023-03-31T17:41:19.772Z,98237.48
2023-03-31T17:43:50.327Z,98233.32
2023-03-31T17:46:19.160Z,98231.38
2023-03-31T17:48:48.665Z,98227.58
2023-03-31T17:51:18.474Z,98227.54
2023-03-31T17:53:57.616Z,98231.56
2023-03-31T17:56:28.625Z,98228.94
2023-03-31T17:58:57.436Z,98228.55
2023-03-31T18:01:26.041Z,98232.23
2023-03-31T18:03:57.907Z,98229.42
2023-03-31T18:06:28.067Z,98234.23
2023-03-31T18:08:57.209Z,98238.41
2023-03-31T18:11:26.041Z,98237.39
2023-03-31T18:14:02.065Z,98236.73
2023-03-31T18:16:31.512Z,98233.91
2023-03-31T18:19:00.268Z,98229.92
2023-03-31T18:21:33.712Z,98228.21
2023-03-31T18:24:01.738Z,98227.23
2023-03-31T18:26:30.212Z,98227.76
2023-03-31T18:28:59.363Z,98228.33
2023-03-31T18:31:27.744Z,98228.79
2023-03-31T18:33:55.931Z,98227.17
2023-03-31T18:36:24.249Z,98222.17
2023-03-31T18:38:53.490Z,98222.17
2023-03-31T18:41:23.736Z,98217.71
2023-03-31T18:43:52.804Z,98217.36
2023-03-31T18:46:21.216Z,98216.49
2023-03-31T18:48:49.448Z,98217.71
2023-03-31T18:51:17.589Z,98220.84
2023-03-31T18:53:47.675Z,98217.75
2023-03-31T18:56:16.294Z,98218.82
2023-03-31T18:58:45.314Z,98217.42
2023-03-31T19:01:13.341Z,98219.18
2023-03-31T19:03:44.579Z,98219.77
2023-03-31T19:06:14.054Z,98220.20
2023-03-31T19:08:42.143Z,98215.37
2023-03-31T19:11:12.874Z,98215.36
2023-03-31T19:13:42.939Z,98213.88
2023-03-31T19:16:31.068Z,98212.23
2023-03-31T19:19:04.055Z,98210.41
2023-03-31T19:21:36.575Z,98207.29
2023-03-31T19:24:05.121Z,98204.66
2023-03-31T19:26:36.268Z,98203.80
2023-03-31T19:29:05.350Z,98202.36
2023-03-31T19:31:38.463Z,98204.02
2023-03-31T19:34:08.052Z,98202.85
2023-03-31T19:36:36.361Z,98194.73
2023-03-31T19:39:06.589Z,98192.88
2023-03-31T19:41:35.944Z,98191.80
2023-03-31T19:44:04.831Z,98191.45
2023-03-31T19:46:33.871Z,98188.65
2023-03-31T19:49:02.086Z,98191.44
2023-03-31T19:51:32.124Z,98186.64
2023-03-31T19:54:01.016Z,98179.27
2023-03-31T19:56:32.822Z,98177.00
2023-03-31T19:59:01.243Z,98179.20
2023-03-31T20:01:30.646Z,98181.13
2023-03-31T20:04:06.238Z,98182.14
2023-03-31T20:06:34.909Z,98184.34
2023-03-31T20:09:03.806Z,98180.67
2023-03-31T20:11:34.561Z,98181.25
2023-03-31T20:14:03.800Z,98189.61
2023-03-31T20:16:32.058Z,98180.12
2023-03-31T20:19:04.391Z,98182.02
2023-03-31T20:21:34.526Z,98181.40
2023-03-31T20:24:05.248Z,98177.92
2023-03-31T20:26:36.244Z,98174.76
2023-03-31T20:29:04.432Z,98181.59
2023-03-31T20:31:36.703Z,98177.09
2023-03-31T20:34:12.530Z,98182.56
2023-03-31T20:36:41.942Z,98182.41
2023-03-31T20:39:10.680Z,98185.41
2023-03-31T20:41:39.200Z,98186.38
2023-03-31T20:44:08.204Z,98184.90
2023-03-31T20:46:37.381Z,98181.39
2023-03-31T20:49:07.345Z,98179.02
2023-03-31T20:51:37.686Z,98178.02
2023-03-31T20:54:07.135Z,98185.09
2023-03-31T20:56:37.865Z,98183.30
2023-03-31T20:59:08.136Z,98189.23
2023-03-31T21:01:36.587Z,98200.42
2023-03-31T21:04:07.557Z,98204.52
2023-03-31T21:06:41.055Z,98205.48
2023-03-31T21:09:09.550Z,98201.18
2023-03-31T21:11:40.128Z,98201.08
2023-03-31T21:14:11.740Z,98196.78
2023-03-31T21:16:40.519Z,98195.67
2023-03-31T21:19:08.763Z,98192.87
2023-03-31T21:21:37.947Z,98191.52
2023-03-31T21:24:06.818Z,98188.48
2023-03-31T21:26:35.394Z,98181.29
2023-03-31T21:29:09.040Z,98180.60
2023-03-31T21:31:38.575Z,98177.85
2023-03-31T21:34:07.714Z,98177.42
2023-03-31T21:36:35.984Z,98170.33
2023-03-31T21:39:05.363Z,98170.30
2023-03-31T21:41:33.461Z,98171.52
2023-03-31T21:44:03.013Z,98171.02
2023-03-31T21:46:32.860Z,98168.82
2023-03-31T21:49:02.593Z,98171.92
2023-03-31T21:51:30.717Z,98168.42
2023-03-31T21:53:58.879Z,98172.83
2023-03-31T21:56:31.924Z,98173.02
2023-03-31T21:59:02.403Z,98176.88
2023-03-31T22:01:31.445Z,98181.54
2023-03-31T22:04:00.909Z,98182.51
2023-03-31T22:06:29.552Z,98184.70
2023-03-31T22:08:57.950Z,98185.30
2023-03-31T22:11:30.870Z,98187.46
2023-03-31T22:13:59.080Z,98186.81
2023-03-31T22:16:27.472Z,98181.13
2023-03-31T22:18:56.009Z,98182.13
2023-03-31T22:21:41.613Z,98181.39
2023-03-31T22:24:10.866Z,98176.96
2023-03-31T22:26:41.136Z,98172.85
2023-03-31T22:29:13.807Z,98171.91
2023-03-31T22:31:42.370Z,98171.54
2023-03-31T22:34:11.585Z,98173.20
2023-03-31T22:36:39.865Z,98173.61
2023-03-31T22:39:08.246Z,98169.17
2023-03-31T22:41:36.801Z,98169.14
2023-03-31T22:44:04.867Z,98176.59
2023-03-31T22:46:33.045Z,98172.13
2023-03-31T22:49:01.111Z,98169.49
2023-03-31T22:51:30.606Z,98170.72
2023-03-31T22:53:58.958Z,98171.13
2023-03-31T22:56:27.774Z,98172.33
2023-03-31T22:58:57.115Z,98172.02
2023-03-31T23:01:26.205Z,98164.19
2023-03-31T23:03:55.832Z,98164.17
2023-03-31T23:06:23.928Z,98159.13
2023-03-31T23:08:53.820Z,98164.75
2023-03-31T23:11:21.941Z,98168.09
2023-03-31T23:13:50.452Z,98172.44
2023-03-31T23:16:23.448Z,98175.16
2023-03-31T23:18:53.081Z,98177.30
2023-03-31T23:21:27.720Z,98174.13
2023-03-31T23:23:57.557Z,98176.33
2023-03-31T23:26:31.968Z,98175.27
2023-03-31T23:29:00.561Z,98173.80
2023-03-31T23:31:30.384Z,98175.50
2023-03-31T23:33:59.203Z,98173.42
2023-03-31T23:36:27.693Z,98181.56
2023-03-31T23:39:00.770Z,98184.25
2023-03-31T23:41:29.987Z,98181.86
2023-03-31T23:43:58.046Z,98182.52
2023-03-31T23:46:30.308Z,98181.45
2023-03-31T23:48:58.583Z,98185.45
2023-03-31T23:51:27.424Z,98183.27
2023-03-31T23:53:55.701Z,98181.09
2023-03-31T23:56:25.564Z,98179.34
2023-03-31T23:58:53.583Z,98177.78
